This is the latest recevied weather packets stored in our database for station/object YU4PTT-8. If no packets are shown the sender has not sent any weather packets the latest 10 day(s).
| Time | Temp. | Humidity | Pressure | Rain* | Wind** | Luminosity | Snow |
|---|---|---|---|---|---|---|---|
| 1778076232 | 19.44° C | 54% | 1003.2 hPa | 0 mm | 0 m/s | - | - |
| 1778073802 | 21.67° C | 42% | 1003.5 hPa | 0 mm | 0.45 m/s, 292° | - | - |
| 1778071402 | 21.11° C | 43% | 1003.8 hPa | 0 mm | 0 m/s | - | - |
| 1778069002 | 21.11° C | 43% | 1004 hPa | 0 mm | 1.79 m/s, 158° | - | - |
| 1778066602 | 19.44° C | 50% | 1004.2 hPa | 0 mm | 0.89 m/s, 45° | - | - |
| 1778064231 | 20° C | 49% | 1004.6 hPa | 0 mm | 0 m/s | - | - |
| 1778062402 | 19.44° C | 45% | 1004.8 hPa | 0 mm | 0 m/s | - | - |
| 1778060002 | 19.44° C | 48% | 1004.8 hPa | 0 mm | 1.79 m/s, 158° | - | - |
| 1778057631 | 18.89° C | 49% | 1005 hPa | 0 mm | 0.45 m/s, 112° | - | - |
| 1778055801 | 18.89° C | 48% | 1004.8 hPa | 0 mm | 2.24 m/s, 158° | - | - |
| 1778053402 | 18.33° C | 48% | 1005 hPa | 0 mm | 1.79 m/s, 158° | - | - |
| 1778051002 | 16.67° C | 53% | 1004.8 hPa | 0 mm | 0.89 m/s, 338° | - | - |
| 1778048602 | 17.78° C | 50% | 1004.7 hPa | 0 mm | 0.89 m/s, 225° | - | - |
| 1778046201 | 15.56° C | 54% | 1004.8 hPa | 0 mm | 0 m/s | - | - |
| 1778043831 | 14.44° C | 54% | 1004.7 hPa | 0 mm | 0 m/s | - | - |
| 1778041432 | 11.67° C | 60% | 1004.7 hPa | 0 mm | 0.45 m/s, 158° | - | - |
| 1778039602 | 11.67° C | 56% | 1004.7 hPa | 0 mm | 0.45 m/s, 158° | - | - |
| 1778037202 | 11.67° C | 54% | 1004.5 hPa | 0 mm | 0.89 m/s, 180° | - | - |
| 1778034801 | 12.22° C | 51% | 1004.5 hPa | 0 mm | 1.34 m/s, 158° | - | - |
| 1778032401 | 12.22° C | 48% | 1004.2 hPa | 0 mm | 0 m/s | - | - |
| 1778030031 | 12.22° C | 46% | 1004 hPa | 0 mm | 0.89 m/s, 180° | - | - |
| 1778028201 | 12.78° C | 46% | 1004 hPa | 0 mm | 0.45 m/s, 112° | - | - |
| 1778025831 | 12.78° C | 45% | 1003.9 hPa | 0 mm | 1.34 m/s, 202° | - | - |
| 1778024001 | 12.78° C | 43% | 1004.2 hPa | 0 mm | 0.45 m/s, 180° | - | - |
| 1778021631 | 12.78° C | 44% | 1004.5 hPa | 0 mm | 1.79 m/s, 158° | - | - |
* Rain latest hour (hover to see other rain measurements)
** Current wind speed in m/s (hover to see current wind gust speed)